5AL0 weather

Marshall Medical Center North Heliport
Guntersville, Alabama, United States

Public forecast

Using degrees Fahrenheit for public forecast. Weather courtesy of forecast.io.

Closest aviation weather report (METAR) to Marshall Medical Center North Heliport

Closest report is Albertville Regional Airport/Thomas J Brumlik Field, 11.6 nm (21.6 km) SE. Retrieved UTC (0 seconds ago):

Closest aviation forecast (TAF) to Marshall Medical Center North Heliport

Forecast is more than 6 hours old.

Closest forecast is Huntsville International Carl T Jones Field, 23.9 nm (44.2 km) NW. Retrieved 2019/10/14 06:36 UTC (11 hours ago):

TAF KHSV 140535Z 1406/1506 VRB03KT P6SM FEW250 FM150300 VRB02KT P6SM BKN250